sensor_id;sensor_type;location;lat;lon;timestamp;P1;durP1;ratioP1;P2;durP2;ratioP2
18445;SDS011;9352;50.888;4.466;2024-03-02T00:01:35;1.20;;;0.80;;
18445;SDS011;9352;50.888;4.466;2024-03-02T00:04:04;0.80;;;0.80;;
18445;SDS011;9352;50.888;4.466;2024-03-02T00:06:32;0.95;;;0.80;;
18445;SDS011;9352;50.888;4.466;2024-03-02T00:08:59;1.95;;;0.80;;
18445;SDS011;9352;50.888;4.466;2024-03-02T00:11:26;0.80;;;0.80;;
18445;SDS011;9352;50.888;4.466;2024-03-02T00:13:53;2.05;;;0.80;;
18445;SDS011;9352;50.888;4.466;2024-03-02T00:16:20;1.02;;;0.80;;
18445;SDS011;9352;50.888;4.466;2024-03-02T00:18:48;0.77;;;0.77;;
18445;SDS011;9352;50.888;4.466;2024-03-02T00:21:17;3.67;;;0.80;;
18445;SDS011;9352;50.888;4.466;2024-03-02T00:23:46;1.67;;;0.60;;
18445;SDS011;9352;50.888;4.466;2024-03-02T00:26:17;1.52;;;0.47;;
18445;SDS011;9352;50.888;4.466;2024-03-02T00:28:43;0.70;;;0.70;;
18445;SDS011;9352;50.888;4.466;2024-03-02T00:31:11;0.70;;;0.70;;
18445;SDS011;9352;50.888;4.466;2024-03-02T00:33:40;0.70;;;0.70;;
18445;SDS011;9352;50.888;4.466;2024-03-02T00:36:08;0.95;;;0.82;;
18445;SDS011;9352;50.888;4.466;2024-03-02T00:38:42;2.17;;;0.80;;
18445;SDS011;9352;50.888;4.466;2024-03-02T00:41:15;0.70;;;0.70;;
18445;SDS011;9352;50.888;4.466;2024-03-02T00:43:45;1.30;;;0.80;;
18445;SDS011;9352;50.888;4.466;2024-03-02T00:46:15;1.85;;;0.98;;
18445;SDS011;9352;50.888;4.466;2024-03-02T00:48:47;1.77;;;0.85;;
18445;SDS011;9352;50.888;4.466;2024-03-02T00:51:18;0.70;;;0.70;;
18445;SDS011;9352;50.888;4.466;2024-03-02T00:53:46;1.27;;;0.73;;
18445;SDS011;9352;50.888;4.466;2024-03-02T00:56:13;1.13;;;0.60;;
18445;SDS011;9352;50.888;4.466;2024-03-02T00:58:40;0.98;;;0.70;;
18445;SDS011;9352;50.888;4.466;2024-03-02T01:01:07;0.60;;;0.60;;
18445;SDS011;9352;50.888;4.466;2024-03-02T01:03:34;0.70;;;0.70;;
18445;SDS011;9352;50.888;4.466;2024-03-02T01:06:02;1.50;;;0.68;;
18445;SDS011;9352;50.888;4.466;2024-03-02T01:08:29;0.40;;;0.40;;
18445;SDS011;9352;50.888;4.466;2024-03-02T01:10:58;1.00;;;0.70;;
18445;SDS011;9352;50.888;4.466;2024-03-02T01:13:25;3.60;;;0.63;;
18445;SDS011;9352;50.888;4.466;2024-03-02T01:15:52;0.68;;;0.68;;
18445;SDS011;9352;50.888;4.466;2024-03-02T01:18:19;1.13;;;0.55;;
18445;SDS011;9352;50.888;4.466;2024-03-02T01:20:47;2.17;;;0.50;;
18445;SDS011;9352;50.888;4.466;2024-03-02T01:23:16;1.58;;;0.70;;
18445;SDS011;9352;50.888;4.466;2024-03-02T01:25:44;2.15;;;0.80;;
18445;SDS011;9352;50.888;4.466;2024-03-02T01:28:13;1.42;;;0.63;;
18445;SDS011;9352;50.888;4.466;2024-03-02T01:30:40;1.17;;;0.55;;
18445;SDS011;9352;50.888;4.466;2024-03-02T01:33:06;0.57;;;0.55;;
18445;SDS011;9352;50.888;4.466;2024-03-02T01:35:33;0.70;;;0.70;;
18445;SDS011;9352;50.888;4.466;2024-03-02T01:38:01;0.70;;;0.70;;
18445;SDS011;9352;50.888;4.466;2024-03-02T01:40:28;0.70;;;0.70;;
18445;SDS011;9352;50.888;4.466;2024-03-02T01:42:54;2.05;;;0.80;;
18445;SDS011;9352;50.888;4.466;2024-03-02T01:45:24;0.95;;;0.80;;
18445;SDS011;9352;50.888;4.466;2024-03-02T01:47:51;1.08;;;0.70;;
18445;SDS011;9352;50.888;4.466;2024-03-02T01:50:24;1.35;;;0.80;;
18445;SDS011;9352;50.888;4.466;2024-03-02T01:52:52;1.42;;;0.70;;
18445;SDS011;9352;50.888;4.466;2024-03-02T01:55:19;1.58;;;0.52;;
18445;SDS011;9352;50.888;4.466;2024-03-02T01:57:46;0.65;;;0.65;;
18445;SDS011;9352;50.888;4.466;2024-03-02T02:00:14;0.50;;;0.50;;
18445;SDS011;9352;50.888;4.466;2024-03-02T02:02:43;4.70;;;0.75;;
18445;SDS011;9352;50.888;4.466;2024-03-02T02:05:10;1.92;;;0.75;;
18445;SDS011;9352;50.888;4.466;2024-03-02T02:07:37;2.10;;;0.80;;
18445;SDS011;9352;50.888;4.466;2024-03-02T02:10:04;1.70;;;0.88;;
18445;SDS011;9352;50.888;4.466;2024-03-02T02:12:32;2.28;;;0.90;;
18445;SDS011;9352;50.888;4.466;2024-03-02T02:14:59;2.92;;;0.85;;
18445;SDS011;9352;50.888;4.466;2024-03-02T02:17:27;0.52;;;0.52;;
18445;SDS011;9352;50.888;4.466;2024-03-02T02:19:55;1.65;;;0.60;;
18445;SDS011;9352;50.888;4.466;2024-03-02T02:22:23;1.23;;;0.60;;
18445;SDS011;9352;50.888;4.466;2024-03-02T02:24:50;3.35;;;0.90;;
18445;SDS011;9352;50.888;4.466;2024-03-02T02:27:17;0.85;;;0.85;;
18445;SDS011;9352;50.888;4.466;2024-03-02T02:29:44;1.00;;;0.82;;
18445;SDS011;9352;50.888;4.466;2024-03-02T02:32:11;4.88;;;0.73;;
18445;SDS011;9352;50.888;4.466;2024-03-02T02:34:38;2.65;;;0.98;;
18445;SDS011;9352;50.888;4.466;2024-03-02T02:37:05;0.80;;;0.80;;
18445;SDS011;9352;50.888;4.466;2024-03-02T02:39:33;1.30;;;0.90;;
18445;SDS011;9352;50.888;4.466;2024-03-02T02:42:00;1.63;;;0.82;;
18445;SDS011;9352;50.888;4.466;2024-03-02T02:44:28;2.45;;;1.02;;
18445;SDS011;9352;50.888;4.466;2024-03-02T02:46:54;0.75;;;0.75;;
18445;SDS011;9352;50.888;4.466;2024-03-02T02:49:22;3.35;;;1.00;;
18445;SDS011;9352;50.888;4.466;2024-03-02T02:51:48;1.75;;;1.00;;
18445;SDS011;9352;50.888;4.466;2024-03-02T02:54:15;2.83;;;0.80;;
18445;SDS011;9352;50.888;4.466;2024-03-02T02:56:44;3.08;;;1.02;;
18445;SDS011;9352;50.888;4.466;2024-03-02T02:59:10;1.98;;;0.80;;
18445;SDS011;9352;50.888;4.466;2024-03-02T03:01:37;4.95;;;1.02;;
18445;SDS011;9352;50.888;4.466;2024-03-02T03:04:04;4.90;;;1.38;;
18445;SDS011;9352;50.888;4.466;2024-03-02T03:06:31;1.33;;;0.90;;
18445;SDS011;9352;50.888;4.466;2024-03-02T03:08:58;3.35;;;1.10;;
18445;SDS011;9352;50.888;4.466;2024-03-02T03:11:25;1.05;;;0.85;;
18445;SDS011;9352;50.888;4.466;2024-03-02T03:13:54;1.95;;;0.88;;
18445;SDS011;9352;50.888;4.466;2024-03-02T03:16:21;4.95;;;1.25;;
18445;SDS011;9352;50.888;4.466;2024-03-02T03:18:48;1.95;;;1.10;;
18445;SDS011;9352;50.888;4.466;2024-03-02T03:21:16;2.35;;;0.88;;
18445;SDS011;9352;50.888;4.466;2024-03-02T03:23:43;2.42;;;1.10;;
18445;SDS011;9352;50.888;4.466;2024-03-02T03:26:10;1.75;;;0.93;;
18445;SDS011;9352;50.888;4.466;2024-03-02T03:28:37;2.17;;;1.05;;
18445;SDS011;9352;50.888;4.466;2024-03-02T03:31:05;1.35;;;0.90;;
18445;SDS011;9352;50.888;4.466;2024-03-02T03:33:33;3.28;;;1.08;;
18445;SDS011;9352;50.888;4.466;2024-03-02T03:36:00;1.10;;;1.00;;
18445;SDS011;9352;50.888;4.466;2024-03-02T03:38:28;1.48;;;1.00;;
18445;SDS011;9352;50.888;4.466;2024-03-02T03:40:55;3.42;;;1.13;;
18445;SDS011;9352;50.888;4.466;2024-03-02T03:43:22;2.58;;;1.30;;
18445;SDS011;9352;50.888;4.466;2024-03-02T03:45:49;2.55;;;1.00;;
18445;SDS011;9352;50.888;4.466;2024-03-02T03:48:16;4.93;;;1.00;;
18445;SDS011;9352;50.888;4.466;2024-03-02T03:50:43;2.47;;;1.10;;
18445;SDS011;9352;50.888;4.466;2024-03-02T03:53:10;1.88;;;1.00;;
18445;SDS011;9352;50.888;4.466;2024-03-02T03:55:37;1.23;;;1.00;;
18445;SDS011;9352;50.888;4.466;2024-03-02T03:58:04;4.87;;;1.40;;
18445;SDS011;9352;50.888;4.466;2024-03-02T04:00:31;1.40;;;0.90;;
18445;SDS011;9352;50.888;4.466;2024-03-02T04:02:58;2.60;;;1.10;;
18445;SDS011;9352;50.888;4.466;2024-03-02T04:05:26;5.03;;;1.00;;
18445;SDS011;9352;50.888;4.466;2024-03-02T04:07:53;1.45;;;0.88;;
18445;SDS011;9352;50.888;4.466;2024-03-02T04:10:20;4.15;;;1.00;;
18445;SDS011;9352;50.888;4.466;2024-03-02T04:12:48;1.95;;;0.93;;
18445;SDS011;9352;50.888;4.466;2024-03-02T04:15:15;1.10;;;0.93;;
18445;SDS011;9352;50.888;4.466;2024-03-02T04:17:43;4.65;;;1.10;;
18445;SDS011;9352;50.888;4.466;2024-03-02T04:20:10;2.97;;;1.10;;
18445;SDS011;9352;50.888;4.466;2024-03-02T04:22:40;6.53;;;1.02;;
18445;SDS011;9352;50.888;4.466;2024-03-02T04:25:07;6.25;;;1.25;;
18445;SDS011;9352;50.888;4.466;2024-03-02T04:27:34;3.15;;;1.08;;
18445;SDS011;9352;50.888;4.466;2024-03-02T04:30:01;4.50;;;1.25;;
18445;SDS011;9352;50.888;4.466;2024-03-02T04:32:30;1.15;;;1.00;;
18445;SDS011;9352;50.888;4.466;2024-03-02T04:34:57;1.38;;;0.90;;
18445;SDS011;9352;50.888;4.466;2024-03-02T04:37:24;1.08;;;1.08;;
18445;SDS011;9352;50.888;4.466;2024-03-02T04:39:52;1.77;;;1.05;;
18445;SDS011;9352;50.888;4.466;2024-03-02T04:42:19;2.38;;;1.20;;
18445;SDS011;9352;50.888;4.466;2024-03-02T04:44:46;5.05;;;1.20;;
18445;SDS011;9352;50.888;4.466;2024-03-02T04:47:13;4.18;;;1.20;;
18445;SDS011;9352;50.888;4.466;2024-03-02T04:49:39;0.85;;;0.85;;
18445;SDS011;9352;50.888;4.466;2024-03-02T04:52:06;1.55;;;0.88;;
18445;SDS011;9352;50.888;4.466;2024-03-02T04:54:33;2.80;;;1.20;;
18445;SDS011;9352;50.888;4.466;2024-03-02T04:57:22;1.20;;;1.10;;
18445;SDS011;9352;50.888;4.466;2024-03-02T04:59:49;2.38;;;1.13;;
18445;SDS011;9352;50.888;4.466;2024-03-02T05:02:16;4.20;;;1.10;;
18445;SDS011;9352;50.888;4.466;2024-03-02T05:04:43;7.80;;;1.15;;
18445;SDS011;9352;50.888;4.466;2024-03-02T05:07:10;4.75;;;1.33;;
18445;SDS011;9352;50.888;4.466;2024-03-02T05:09:36;2.13;;;1.17;;
18445;SDS011;9352;50.888;4.466;2024-03-02T05:12:04;4.05;;;1.10;;
18445;SDS011;9352;50.888;4.466;2024-03-02T05:14:52;2.25;;;1.05;;
18445;SDS011;9352;50.888;4.466;2024-03-02T05:17:19;3.40;;;1.40;;
18445;SDS011;9352;50.888;4.466;2024-03-02T05:19:46;3.50;;;1.40;;
18445;SDS011;9352;50.888;4.466;2024-03-02T05:22:13;3.83;;;1.10;;
18445;SDS011;9352;50.888;4.466;2024-03-02T05:24:40;6.78;;;0.98;;
18445;SDS011;9352;50.888;4.466;2024-03-02T05:27:06;1.17;;;1.05;;
18445;SDS011;9352;50.888;4.466;2024-03-02T05:29:33;3.70;;;1.10;;
18445;SDS011;9352;50.888;4.466;2024-03-02T05:32:01;2.35;;;1.30;;
18445;SDS011;9352;50.888;4.466;2024-03-02T05:34:28;5.28;;;1.73;;
18445;SDS011;9352;50.888;4.466;2024-03-02T05:36:57;7.95;;;1.45;;
18445;SDS011;9352;50.888;4.466;2024-03-02T05:39:24;3.40;;;1.15;;
18445;SDS011;9352;50.888;4.466;2024-03-02T05:41:51;1.02;;;1.00;;
18445;SDS011;9352;50.888;4.466;2024-03-02T05:44:18;3.17;;;1.40;;
18445;SDS011;9352;50.888;4.466;2024-03-02T05:46:45;3.43;;;1.30;;
18445;SDS011;9352;50.888;4.466;2024-03-02T05:49:14;5.93;;;1.48;;
18445;SDS011;9352;50.888;4.466;2024-03-02T05:51:41;3.33;;;1.40;;
18445;SDS011;9352;50.888;4.466;2024-03-02T05:54:08;6.88;;;1.30;;
18445;SDS011;9352;50.888;4.466;2024-03-02T05:56:35;4.00;;;1.42;;
18445;SDS011;9352;50.888;4.466;2024-03-02T05:59:02;4.65;;;1.27;;
18445;SDS011;9352;50.888;4.466;2024-03-02T06:01:37;5.38;;;1.50;;
18445;SDS011;9352;50.888;4.466;2024-03-02T06:04:04;6.13;;;1.45;;
18445;SDS011;9352;50.888;4.466;2024-03-02T06:06:33;4.75;;;1.42;;
18445;SDS011;9352;50.888;4.466;2024-03-02T06:09:00;6.80;;;1.42;;
18445;SDS011;9352;50.888;4.466;2024-03-02T06:11:27;5.80;;;1.35;;
18445;SDS011;9352;50.888;4.466;2024-03-02T06:13:54;7.68;;;1.73;;
18445;SDS011;9352;50.888;4.466;2024-03-02T06:16:22;3.15;;;1.20;;
18445;SDS011;9352;50.888;4.466;2024-03-02T06:18:49;5.20;;;1.30;;
18445;SDS011;9352;50.888;4.466;2024-03-02T06:21:16;3.80;;;1.40;;
18445;SDS011;9352;50.888;4.466;2024-03-02T06:23:45;1.88;;;1.00;;
18445;SDS011;9352;50.888;4.466;2024-03-02T06:26:12;4.18;;;1.63;;
18445;SDS011;9352;50.888;4.466;2024-03-02T06:28:39;7.53;;;1.67;;
18445;SDS011;9352;50.888;4.466;2024-03-02T06:31:06;5.72;;;1.33;;
18445;SDS011;9352;50.888;4.466;2024-03-02T06:33:33;1.30;;;1.20;;
18445;SDS011;9352;50.888;4.466;2024-03-02T06:36:00;6.28;;;1.17;;
18445;SDS011;9352;50.888;4.466;2024-03-02T06:38:26;3.53;;;1.10;;
18445;SDS011;9352;50.888;4.466;2024-03-02T06:40:54;2.13;;;1.08;;
18445;SDS011;9352;50.888;4.466;2024-03-02T06:43:21;4.88;;;2.15;;
18445;SDS011;9352;50.888;4.466;2024-03-02T06:45:48;5.28;;;1.10;;
18445;SDS011;9352;50.888;4.466;2024-03-02T06:48:15;7.35;;;1.77;;
18445;SDS011;9352;50.888;4.466;2024-03-02T06:50:45;2.95;;;1.50;;
18445;SDS011;9352;50.888;4.466;2024-03-02T06:53:11;4.20;;;1.50;;
18445;SDS011;9352;50.888;4.466;2024-03-02T06:55:38;3.20;;;1.47;;
18445;SDS011;9352;50.888;4.466;2024-03-02T06:58:07;4.85;;;1.45;;
18445;SDS011;9352;50.888;4.466;2024-03-02T07:00:33;4.38;;;1.55;;
18445;SDS011;9352;50.888;4.466;2024-03-02T07:03:00;3.17;;;1.38;;
18445;SDS011;9352;50.888;4.466;2024-03-02T07:05:27;6.50;;;1.60;;
18445;SDS011;9352;50.888;4.466;2024-03-02T07:07:54;2.83;;;1.30;;
18445;SDS011;9352;50.888;4.466;2024-03-02T07:10:21;7.18;;;1.35;;
18445;SDS011;9352;50.888;4.466;2024-03-02T07:12:48;11.90;;;1.70;;
18445;SDS011;9352;50.888;4.466;2024-03-02T07:15:16;2.35;;;1.30;;
18445;SDS011;9352;50.888;4.466;2024-03-02T07:18:09;7.82;;;1.50;;
18445;SDS011;9352;50.888;4.466;2024-03-02T07:20:36;4.72;;;1.30;;
18445;SDS011;9352;50.888;4.466;2024-03-02T07:23:04;5.65;;;1.48;;
18445;SDS011;9352;50.888;4.466;2024-03-02T07:25:31;5.20;;;1.30;;
18445;SDS011;9352;50.888;4.466;2024-03-02T07:27:58;3.60;;;1.27;;
18445;SDS011;9352;50.888;4.466;2024-03-02T07:30:27;7.00;;;1.40;;
18445;SDS011;9352;50.888;4.466;2024-03-02T07:32:54;4.65;;;1.40;;
18445;SDS011;9352;50.888;4.466;2024-03-02T07:35:20;3.08;;;1.50;;
18445;SDS011;9352;50.888;4.466;2024-03-02T07:37:51;4.07;;;1.33;;
18445;SDS011;9352;50.888;4.466;2024-03-02T07:40:18;8.98;;;1.50;;
18445;SDS011;9352;50.888;4.466;2024-03-02T07:42:45;3.83;;;1.45;;
18445;SDS011;9352;50.888;4.466;2024-03-02T07:45:12;7.30;;;1.60;;
18445;SDS011;9352;50.888;4.466;2024-03-02T07:47:41;7.18;;;1.35;;
18445;SDS011;9352;50.888;4.466;2024-03-02T07:50:08;7.70;;;1.80;;
18445;SDS011;9352;50.888;4.466;2024-03-02T07:52:35;6.20;;;1.67;;
18445;SDS011;9352;50.888;4.466;2024-03-02T07:55:02;8.00;;;1.60;;
18445;SDS011;9352;50.888;4.466;2024-03-02T07:57:30;3.00;;;1.48;;
18445;SDS011;9352;50.888;4.466;2024-03-02T07:59:57;8.98;;;1.60;;
18445;SDS011;9352;50.888;4.466;2024-03-02T08:02:25;8.80;;;1.80;;
18445;SDS011;9352;50.888;4.466;2024-03-02T08:04:53;5.32;;;1.35;;
18445;SDS011;9352;50.888;4.466;2024-03-02T08:07:20;2.17;;;1.33;;
18445;SDS011;9352;50.888;4.466;2024-03-02T08:09:47;3.17;;;1.30;;
18445;SDS011;9352;50.888;4.466;2024-03-02T08:12:13;8.20;;;1.67;;
18445;SDS011;9352;50.888;4.466;2024-03-02T08:14:40;10.05;;;1.70;;
18445;SDS011;9352;50.888;4.466;2024-03-02T08:17:07;6.80;;;1.65;;
18445;SDS011;9352;50.888;4.466;2024-03-02T08:19:36;5.40;;;1.33;;
18445;SDS011;9352;50.888;4.466;2024-03-02T08:22:05;5.80;;;1.30;;
18445;SDS011;9352;50.888;4.466;2024-03-02T08:24:32;4.63;;;1.40;;
18445;SDS011;9352;50.888;4.466;2024-03-02T08:26:59;5.28;;;1.35;;
18445;SDS011;9352;50.888;4.466;2024-03-02T08:29:26;6.82;;;1.38;;
18445;SDS011;9352;50.888;4.466;2024-03-02T08:31:53;3.90;;;1.45;;
18445;SDS011;9352;50.888;4.466;2024-03-02T08:34:19;4.50;;;1.40;;
18445;SDS011;9352;50.888;4.466;2024-03-02T08:36:46;5.57;;;1.60;;
18445;SDS011;9352;50.888;4.466;2024-03-02T08:39:15;4.13;;;1.35;;
18445;SDS011;9352;50.888;4.466;2024-03-02T08:41:42;4.10;;;1.23;;
18445;SDS011;9352;50.888;4.466;2024-03-02T08:44:10;6.25;;;1.70;;
18445;SDS011;9352;50.888;4.466;2024-03-02T08:46:38;6.28;;;1.50;;
18445;SDS011;9352;50.888;4.466;2024-03-02T08:49:05;7.10;;;1.60;;
18445;SDS011;9352;50.888;4.466;2024-03-02T08:51:32;10.27;;;1.98;;
18445;SDS011;9352;50.888;4.466;2024-03-02T08:53:59;7.38;;;1.45;;
18445;SDS011;9352;50.888;4.466;2024-03-02T08:56:28;6.60;;;1.73;;
18445;SDS011;9352;50.888;4.466;2024-03-02T08:58:54;5.03;;;1.42;;
18445;SDS011;9352;50.888;4.466;2024-03-02T09:01:21;5.18;;;1.70;;
18445;SDS011;9352;50.888;4.466;2024-03-02T09:03:48;4.43;;;1.80;;
18445;SDS011;9352;50.888;4.466;2024-03-02T09:06:16;4.85;;;1.50;;
18445;SDS011;9352;50.888;4.466;2024-03-02T09:08:44;5.53;;;1.60;;
18445;SDS011;9352;50.888;4.466;2024-03-02T09:11:12;6.55;;;1.60;;
18445;SDS011;9352;50.888;4.466;2024-03-02T09:13:40;8.52;;;1.65;;
18445;SDS011;9352;50.888;4.466;2024-03-02T09:16:07;4.15;;;1.60;;
18445;SDS011;9352;50.888;4.466;2024-03-02T09:18:36;8.23;;;1.73;;
18445;SDS011;9352;50.888;4.466;2024-03-02T09:21:03;10.90;;;1.70;;
18445;SDS011;9352;50.888;4.466;2024-03-02T09:23:30;6.18;;;1.88;;
18445;SDS011;9352;50.888;4.466;2024-03-02T09:25:58;5.53;;;1.52;;
18445;SDS011;9352;50.888;4.466;2024-03-02T09:28:25;5.63;;;1.67;;
18445;SDS011;9352;50.888;4.466;2024-03-02T09:30:53;5.80;;;1.40;;
18445;SDS011;9352;50.888;4.466;2024-03-02T09:33:20;6.45;;;1.33;;
18445;SDS011;9352;50.888;4.466;2024-03-02T09:35:47;4.45;;;1.40;;
18445;SDS011;9352;50.888;4.466;2024-03-02T09:38:14;8.43;;;1.83;;
18445;SDS011;9352;50.888;4.466;2024-03-02T09:40:41;10.35;;;2.17;;
18445;SDS011;9352;50.888;4.466;2024-03-02T09:43:09;21.42;;;1.77;;
18445;SDS011;9352;50.888;4.466;2024-03-02T09:45:36;7.60;;;1.70;;
18445;SDS011;9352;50.888;4.466;2024-03-02T09:48:06;8.85;;;1.52;;
18445;SDS011;9352;50.888;4.466;2024-03-02T09:50:36;3.20;;;1.42;;
18445;SDS011;9352;50.888;4.466;2024-03-02T09:53:03;5.43;;;1.42;;
18445;SDS011;9352;50.888;4.466;2024-03-02T09:55:34;5.78;;;1.80;;
18445;SDS011;9352;50.888;4.466;2024-03-02T09:58:01;6.45;;;1.55;;
18445;SDS011;9352;50.888;4.466;2024-03-02T10:00:29;9.32;;;1.67;;
18445;SDS011;9352;50.888;4.466;2024-03-02T10:02:56;3.72;;;1.38;;
18445;SDS011;9352;50.888;4.466;2024-03-02T10:05:25;6.95;;;1.70;;
18445;SDS011;9352;50.888;4.466;2024-03-02T10:07:59;3.08;;;1.30;;
18445;SDS011;9352;50.888;4.466;2024-03-02T10:14:10;6.35;;;1.38;;
18445;SDS011;9352;50.888;4.466;2024-03-02T10:19:57;7.35;;;1.63;;
18445;SDS011;9352;50.888;4.466;2024-03-02T10:22:25;6.32;;;1.90;;
18445;SDS011;9352;50.888;4.466;2024-03-02T10:24:52;5.22;;;1.27;;
18445;SDS011;9352;50.888;4.466;2024-03-02T10:27:22;4.30;;;2.05;;
18445;SDS011;9352;50.888;4.466;2024-03-02T10:29:52;8.40;;;1.70;;
18445;SDS011;9352;50.888;4.466;2024-03-02T10:32:19;3.78;;;1.45;;
18445;SDS011;9352;50.888;4.466;2024-03-02T10:34:49;7.50;;;1.50;;
18445;SDS011;9352;50.888;4.466;2024-03-02T10:37:16;4.68;;;1.40;;
18445;SDS011;9352;50.888;4.466;2024-03-02T10:39:45;5.75;;;1.30;;
18445;SDS011;9352;50.888;4.466;2024-03-02T10:42:12;5.43;;;1.85;;
18445;SDS011;9352;50.888;4.466;2024-03-02T10:44:41;6.57;;;1.52;;
18445;SDS011;9352;50.888;4.466;2024-03-02T10:47:09;4.95;;;1.60;;
18445;SDS011;9352;50.888;4.466;2024-03-02T10:49:40;8.20;;;1.73;;
18445;SDS011;9352;50.888;4.466;2024-03-02T10:52:08;5.90;;;1.27;;
18445;SDS011;9352;50.888;4.466;2024-03-02T10:54:35;7.72;;;1.80;;
18445;SDS011;9352;50.888;4.466;2024-03-02T10:57:06;5.70;;;1.40;;
18445;SDS011;9352;50.888;4.466;2024-03-02T10:59:35;7.22;;;1.50;;
18445;SDS011;9352;50.888;4.466;2024-03-02T11:02:04;4.60;;;1.25;;
18445;SDS011;9352;50.888;4.466;2024-03-02T11:04:33;11.07;;;1.50;;
18445;SDS011;9352;50.888;4.466;2024-03-02T11:07:02;2.78;;;1.27;;
18445;SDS011;9352;50.888;4.466;2024-03-02T11:09:32;6.30;;;1.52;;
18445;SDS011;9352;50.888;4.466;2024-03-02T11:12:02;7.50;;;1.60;;
18445;SDS011;9352;50.888;4.466;2024-03-02T11:14:31;7.25;;;1.50;;
18445;SDS011;9352;50.888;4.466;2024-03-02T11:16:59;8.48;;;1.48;;
18445;SDS011;9352;50.888;4.466;2024-03-02T11:19:28;4.88;;;1.60;;
18445;SDS011;9352;50.888;4.466;2024-03-02T11:21:56;13.13;;;1.85;;
18445;SDS011;9352;50.888;4.466;2024-03-02T11:24:30;4.65;;;1.65;;
18445;SDS011;9352;50.888;4.466;2024-03-02T11:26:59;6.10;;;1.45;;
18445;SDS011;9352;50.888;4.466;2024-03-02T11:29:46;7.82;;;1.63;;
18445;SDS011;9352;50.888;4.466;2024-03-02T11:32:14;3.45;;;1.33;;
18445;SDS011;9352;50.888;4.466;2024-03-02T11:34:43;5.80;;;1.42;;
18445;SDS011;9352;50.888;4.466;2024-03-02T11:37:12;9.00;;;1.38;;
18445;SDS011;9352;50.888;4.466;2024-03-02T11:39:40;5.28;;;1.42;;
18445;SDS011;9352;50.888;4.466;2024-03-02T11:42:07;5.40;;;1.60;;
18445;SDS011;9352;50.888;4.466;2024-03-02T11:44:35;4.65;;;1.42;;
18445;SDS011;9352;50.888;4.466;2024-03-02T11:47:05;6.80;;;2.00;;
18445;SDS011;9352;50.888;4.466;2024-03-02T11:49:36;6.78;;;1.52;;
18445;SDS011;9352;50.888;4.466;2024-03-02T11:52:04;4.38;;;1.30;;
18445;SDS011;9352;50.888;4.466;2024-03-02T11:54:32;4.18;;;1.73;;
18445;SDS011;9352;50.888;4.466;2024-03-02T11:57:01;11.23;;;1.55;;
18445;SDS011;9352;50.888;4.466;2024-03-02T11:59:29;2.67;;;1.38;;
18445;SDS011;9352;50.888;4.466;2024-03-02T12:01:56;6.82;;;1.50;;
18445;SDS011;9352;50.888;4.466;2024-03-02T12:04:25;5.53;;;1.60;;
18445;SDS011;9352;50.888;4.466;2024-03-02T12:06:56;5.18;;;1.77;;
18445;SDS011;9352;50.888;4.466;2024-03-02T12:09:25;6.28;;;1.70;;
18445;SDS011;9352;50.888;4.466;2024-03-02T12:12:03;6.32;;;1.52;;
18445;SDS011;9352;50.888;4.466;2024-03-02T12:14:31;3.22;;;1.50;;
18445;SDS011;9352;50.888;4.466;2024-03-02T12:16:58;4.40;;;1.73;;
18445;SDS011;9352;50.888;4.466;2024-03-02T12:19:27;7.78;;;1.77;;
18445;SDS011;9352;50.888;4.466;2024-03-02T12:21:56;2.70;;;1.33;;
18445;SDS011;9352;50.888;4.466;2024-03-02T12:24:23;5.03;;;1.60;;
18445;SDS011;9352;50.888;4.466;2024-03-02T12:26:53;6.47;;;1.23;;
18445;SDS011;9352;50.888;4.466;2024-03-02T12:29:20;9.40;;;1.50;;
18445;SDS011;9352;50.888;4.466;2024-03-02T12:31:48;4.38;;;1.38;;
18445;SDS011;9352;50.888;4.466;2024-03-02T12:34:15;9.77;;;1.60;;
18445;SDS011;9352;50.888;4.466;2024-03-02T12:36:45;8.70;;;1.50;;
18445;SDS011;9352;50.888;4.466;2024-03-02T12:39:14;5.88;;;1.65;;
18445;SDS011;9352;50.888;4.466;2024-03-02T12:41:41;3.83;;;1.20;;
18445;SDS011;9352;50.888;4.466;2024-03-02T12:44:08;3.08;;;1.30;;
18445;SDS011;9352;50.888;4.466;2024-03-02T12:46:35;4.55;;;1.55;;
18445;SDS011;9352;50.888;4.466;2024-03-02T12:49:07;4.20;;;1.55;;
18445;SDS011;9352;50.888;4.466;2024-03-02T12:51:36;5.47;;;1.30;;
18445;SDS011;9352;50.888;4.466;2024-03-02T12:54:06;3.47;;;1.27;;
18445;SDS011;9352;50.888;4.466;2024-03-02T12:56:35;2.65;;;1.20;;
18445;SDS011;9352;50.888;4.466;2024-03-02T12:59:03;3.08;;;1.60;;
18445;SDS011;9352;50.888;4.466;2024-03-02T13:01:30;4.55;;;1.45;;
18445;SDS011;9352;50.888;4.466;2024-03-02T13:03:57;9.55;;;1.92;;
18445;SDS011;9352;50.888;4.466;2024-03-02T13:06:25;4.57;;;1.30;;
18445;SDS011;9352;50.888;4.466;2024-03-02T13:08:54;5.47;;;1.23;;
18445;SDS011;9352;50.888;4.466;2024-03-02T13:11:23;2.42;;;1.20;;
18445;SDS011;9352;50.888;4.466;2024-03-02T13:13:50;4.20;;;1.00;;
18445;SDS011;9352;50.888;4.466;2024-03-02T13:16:17;3.10;;;1.48;;
18445;SDS011;9352;50.888;4.466;2024-03-02T13:18:45;1.42;;;1.05;;
18445;SDS011;9352;50.888;4.466;2024-03-02T13:21:12;5.45;;;1.30;;
18445;SDS011;9352;50.888;4.466;2024-03-02T13:23:39;3.28;;;1.30;;
18445;SDS011;9352;50.888;4.466;2024-03-02T13:26:06;5.50;;;1.98;;
18445;SDS011;9352;50.888;4.466;2024-03-02T13:28:37;3.58;;;1.60;;
18445;SDS011;9352;50.888;4.466;2024-03-02T13:31:04;5.75;;;1.98;;
18445;SDS011;9352;50.888;4.466;2024-03-02T13:33:31;4.95;;;2.00;;
18445;SDS011;9352;50.888;4.466;2024-03-02T13:35:58;2.88;;;1.27;;
18445;SDS011;9352;50.888;4.466;2024-03-02T13:38:26;4.93;;;1.55;;
18445;SDS011;9352;50.888;4.466;2024-03-02T13:40:53;5.35;;;1.50;;
18445;SDS011;9352;50.888;4.466;2024-03-02T13:43:20;6.43;;;1.45;;
18445;SDS011;9352;50.888;4.466;2024-03-02T13:45:50;4.40;;;1.60;;
18445;SDS011;9352;50.888;4.466;2024-03-02T13:48:18;3.85;;;1.42;;
18445;SDS011;9352;50.888;4.466;2024-03-02T13:50:45;4.25;;;1.23;;
18445;SDS011;9352;50.888;4.466;2024-03-02T13:53:12;6.05;;;1.40;;
18445;SDS011;9352;50.888;4.466;2024-03-02T13:55:39;23.38;;;3.70;;
18445;SDS011;9352;50.888;4.466;2024-03-02T13:58:07;5.50;;;2.65;;
18445;SDS011;9352;50.888;4.466;2024-03-02T14:00:34;8.35;;;2.25;;
18445;SDS011;9352;50.888;4.466;2024-03-02T14:03:03;1.85;;;1.20;;
18445;SDS011;9352;50.888;4.466;2024-03-02T14:05:32;3.42;;;1.48;;
18445;SDS011;9352;50.888;4.466;2024-03-02T14:07:59;3.15;;;1.00;;
18445;SDS011;9352;50.888;4.466;2024-03-02T14:10:26;5.68;;;1.38;;
18445;SDS011;9352;50.888;4.466;2024-03-02T14:12:54;2.58;;;1.30;;
18445;SDS011;9352;50.888;4.466;2024-03-02T14:15:21;4.28;;;1.30;;
18445;SDS011;9352;50.888;4.466;2024-03-02T14:17:48;4.60;;;1.83;;
18445;SDS011;9352;50.888;4.466;2024-03-02T14:20:16;4.65;;;1.10;;
18445;SDS011;9352;50.888;4.466;2024-03-02T14:22:47;3.05;;;1.40;;
18445;SDS011;9352;50.888;4.466;2024-03-02T14:25:14;3.45;;;1.40;;
18445;SDS011;9352;50.888;4.466;2024-03-02T14:27:41;2.35;;;1.10;;
18445;SDS011;9352;50.888;4.466;2024-03-02T14:30:08;2.75;;;1.13;;
18445;SDS011;9352;50.888;4.466;2024-03-02T14:32:36;3.22;;;1.27;;
18445;SDS011;9352;50.888;4.466;2024-03-02T14:35:03;4.13;;;1.35;;
18445;SDS011;9352;50.888;4.466;2024-03-02T14:37:32;5.82;;;1.58;;
18445;SDS011;9352;50.888;4.466;2024-03-02T14:39:59;4.28;;;1.02;;
18445;SDS011;9352;50.888;4.466;2024-03-02T14:42:26;1.15;;;1.10;;
18445;SDS011;9352;50.888;4.466;2024-03-02T14:44:56;1.88;;;1.23;;
18445;SDS011;9352;50.888;4.466;2024-03-02T14:47:23;1.27;;;1.10;;
18445;SDS011;9352;50.888;4.466;2024-03-02T14:49:50;3.67;;;1.10;;
18445;SDS011;9352;50.888;4.466;2024-03-02T14:52:18;1.30;;;1.20;;
18445;SDS011;9352;50.888;4.466;2024-03-02T14:54:46;1.13;;;1.00;;
18445;SDS011;9352;50.888;4.466;2024-03-02T14:57:13;1.95;;;1.20;;
18445;SDS011;9352;50.888;4.466;2024-03-02T14:59:40;2.92;;;1.20;;
18445;SDS011;9352;50.888;4.466;2024-03-02T15:02:07;5.47;;;1.90;;
18445;SDS011;9352;50.888;4.466;2024-03-02T15:04:34;1.13;;;1.10;;
18445;SDS011;9352;50.888;4.466;2024-03-02T15:07:01;3.22;;;1.30;;
18445;SDS011;9352;50.888;4.466;2024-03-02T15:09:28;2.38;;;1.40;;
18445;SDS011;9352;50.888;4.466;2024-03-02T15:11:57;2.70;;;1.33;;